Maersk Nimes — VRFO7 — position and weather

sailwx.info

Track history (hours):
 
Tides and Currents Weather Stations Pressure Air Temp Water Temp Dewpoint Dewpoint Depression Visibility Wind Speed Wind Dir Waves Ship Positions

Maersk Nimes

Last reported at 2016-May-28 03:33 UTC. Time now 2016-May-28 04:01 UTC.
Position N 53°33' E 005°19'.

Length 210 m; draft 10.4 m.

Type: Cargo ship. MMSI: 477559200.

Date/timePositionNaut miles runAvg speedWind from/ knotsBaromVisibWave heightAir tempDewpointWater temp
2016-May-28 03:33N 53°33' E 005°19'10 9.9
2016-May-28 02:33N 53°29' E 005°04'1010.3
2016-May-28 01:33N 53°25' E 004°48'1210.5
2016-May-28 00:27N 53°16' E 004°36'1010.9
2016-May-27 23:33N 53°07' E 004°29'1111.3
2016-May-27 22:33N 52°57' E 004°20'1111.2
2016-May-27 21:33N 52°47' E 004°12'1211.7
2016-May-27 20:33N 52°37' E 004°01'1111.4
2016-May-27 19:33N 52°27' E 003°54'1211.8
2016-May-27 18:33N 52°15' E 003°53'1211.7
2016-May-27 17:33N 52°04' E 003°54'9 8.7
2016-May-27 16:33N 51°58' E 004°04'2 2.5
2016-May-27 15:33N 51°57' E 004°00'0 0.0
2016-May-27 14:33N 51°57' E 004°00'0 0.0
2016-May-27 13:33N 51°57' E 004°00'0 0.0
2016-May-27 12:33N 51°57' E 004°00'0 0.0
2016-May-27 11:33N 51°57' E 004°00'0 0.0
2016-May-27 10:33N 51°57' E 004°00'0 0.0
2016-May-27 09:34N 51°57' E 004°00'0 0.0
2016-May-27 08:33N 51°57' E 004°00'0 0.0
2016-May-27 07:33N 51°57' E 004°00'0 0.0
2016-May-27 06:33N 51°57' E 004°00'0 0.0
2016-May-27 05:33N 51°57' E 004°00'0 0.0
2016-May-27 04:34N 51°57' E 004°00'3 3.1
2016-May-27 03:33N 51°58' E 004°05'6 5.6
2016-May-27 02:33N 52°00' E 003°57'1010.1
2016-May-27 01:33N 51°58' E 003°41'1312.9
2016-May-27 00:33N 51°54' E 003°21'1312.8
2016-May-26 23:33N 51°51' E 003°01'10 9.5
2016-May-26 22:34N 51°48' E 002°46'1818.0
2016-May-26 21:33N 51°36' E 002°24'1818.2
2016-May-26 20:34N 51°22' E 002°07'1817.6
2016-May-26 19:34N 51°08' E 001°48'1919.1
2016-May-26 18:34N 50°54' E 001°28'1918.5
2016-May-26 17:33N 50°38' E 001°13'2018.6
2016-May-26 16:28N 50°29' E 000°44'1718.7
2016-May-26 15:34N 50°25' E 000°19'1918.8
2016-May-26 14:34N 50°20' W 000°10'2019.5
2016-May-26 13:34N 50°15' W 000°39'2121.0
2016-May-26 12:33N 50°09' W 001°11'2221.8
2016-May-26 11:34N 50°03' W 001°43'3322.3
2016-May-26 10:04N 49°55' W 002°33'1121.3
2016-May-26 09:33N 49°52' W 002°50'2120.8
2016-May-26 08:33N 49°46' W 003°21'2020.3
2016-May-26 07:33N 49°44' W 003°52'2120.3
2016-May-26 06:33N 49°38' W 004°22'2220.1
2016-May-26 05:28N 49°33' W 004°55'1819.7
2016-May-26 04:32N 49°23' W 005°19'4119.4
2016-May-26 02:26N 48°55' W 006°04'50119.0
2016-May-25 00:00N 43°06' W 014°42'38618.4 230 / 181005.8 5.4 1.516.011.7
2016-May-24 03:00N 39°06' W 021°24'12118.0 300 / 241014.5 5.4 3.017.014.6
2016-May-23 20:17N 38°01' W 023°35'1318.1
2016-May-23 19:33N 37°54' W 023°49'1818.0
2016-May-23 18:33N 37°45' W 024°08'1818.1
2016-May-23 17:34N 37°36' W 024°28'1918.5
2016-May-23 16:34N 37°26' W 024°48'1818.1
2016-May-23 15:34N 37°15' W 025°06'1818.3
2016-May-23 14:33N 37°06' W 025°26'1818.2
2016-May-23 13:34N 36°56' W 025°45'1818.4
2016-May-23 12:34N 36°47' W 026°05'1818.3
2016-May-23 11:33N 36°37' W 026°25'20717.9
2016-May-23 00:00N 35°24' W 030°24'6120.5 270 / 241019.0 5.4 2.519.015.9
2016-May-22 21:00N 35°06' W 031°36'16218.0 230 / 241018.0 5.4 3.020.013.520.0
2016-May-22 12:00N 34°30' W 034°48'23319.5 270 / 221018.0 2.2 2.018.018.0
2016-May-22 00:00N 33°24' W 039°18'6120.5 10.0
2016-May-21 21:00N 33°12' W 040°30'11719.4 230 / 191022.0 5.4 1.525.020.722.0
2016-May-21 15:00N 32°36' W 042°42'34519.2 230 / 201022.0 5.4 1.524.021.1
2016-May-20 21:00N 29°42' W 048°30'10918.1 180 / 101026.010.8 1.531.024.224.0
2016-May-20 15:00N 28°48' W 050°18'27518.3 180 / 121026.010.8 0.524.520.9
2016-May-20 00:00N 26°24' W 054°42'16418.2 140 / 141025.010.8 2.025.020.725.0
2016-May-19 15:00N 25°00' W 057°18'15617.3 120 / 151023.010.8 1.025.520.5
2016-May-19 06:00N 23°36' W 059°42'   090 / 181020.010.8 1.025.022.9
Track history (hours):
 
Tides and Currents Weather Stations Pressure Air Temp Water Temp Dewpoint Dewpoint Depression Visibility Wind Speed Wind Dir Waves Ship Positions

Maersk Nimes

Last reported at 2016-May-28 03:33 UTC. Time now 2016-May-28 04:01 UTC.
Position N 53°33' E 005°19'.

Length 210 m; draft 10.4 m.

Type: Cargo ship. MMSI: 477559200.

Date/timePositionNaut miles runAvg speedWind from/ knotsBaromVisibWave heightAir tempDewpointWater temp
2016-May-28 03:33N 53°33' E 005°19'10 9.9
2016-May-28 02:33N 53°29' E 005°04'1010.3
2016-May-28 01:33N 53°25' E 004°48'1210.5
2016-May-28 00:27N 53°16' E 004°36'1010.9
2016-May-27 23:33N 53°07' E 004°29'1111.3
2016-May-27 22:33N 52°57' E 004°20'1111.2
2016-May-27 21:33N 52°47' E 004°12'1211.7
2016-May-27 20:33N 52°37' E 004°01'1111.4
2016-May-27 19:33N 52°27' E 003°54'1211.8
2016-May-27 18:33N 52°15' E 003°53'1211.7
2016-May-27 17:33N 52°04' E 003°54'9 8.7
2016-May-27 16:33N 51°58' E 004°04'2 2.5
2016-May-27 15:33N 51°57' E 004°00'0 0.0
2016-May-27 14:33N 51°57' E 004°00'0 0.0
2016-May-27 13:33N 51°57' E 004°00'0 0.0
2016-May-27 12:33N 51°57' E 004°00'0 0.0
2016-May-27 11:33N 51°57' E 004°00'0 0.0
2016-May-27 10:33N 51°57' E 004°00'0 0.0
2016-May-27 09:34N 51°57' E 004°00'0 0.0
2016-May-27 08:33N 51°57' E 004°00'0 0.0
2016-May-27 07:33N 51°57' E 004°00'0 0.0
2016-May-27 06:33N 51°57' E 004°00'0 0.0
2016-May-27 05:33N 51°57' E 004°00'0 0.0
2016-May-27 04:34N 51°57' E 004°00'3 3.1
2016-May-27 03:33N 51°58' E 004°05'6 5.6
2016-May-27 02:33N 52°00' E 003°57'1010.1
2016-May-27 01:33N 51°58' E 003°41'1312.9
2016-May-27 00:33N 51°54' E 003°21'1312.8
2016-May-26 23:33N 51°51' E 003°01'10 9.5
2016-May-26 22:34N 51°48' E 002°46'1818.0
2016-May-26 21:33N 51°36' E 002°24'1818.2
2016-May-26 20:34N 51°22' E 002°07'1817.6
2016-May-26 19:34N 51°08' E 001°48'1919.1
2016-May-26 18:34N 50°54' E 001°28'1918.5
2016-May-26 17:33N 50°38' E 001°13'2018.6
2016-May-26 16:28N 50°29' E 000°44'1718.7
2016-May-26 15:34N 50°25' E 000°19'1918.8
2016-May-26 14:34N 50°20' W 000°10'2019.5
2016-May-26 13:34N 50°15' W 000°39'2121.0
2016-May-26 12:33N 50°09' W 001°11'2221.8
2016-May-26 11:34N 50°03' W 001°43'3322.3
2016-May-26 10:04N 49°55' W 002°33'1121.3
2016-May-26 09:33N 49°52' W 002°50'2120.8
2016-May-26 08:33N 49°46' W 003°21'2020.3
2016-May-26 07:33N 49°44' W 003°52'2120.3
2016-May-26 06:33N 49°38' W 004°22'2220.1
2016-May-26 05:28N 49°33' W 004°55'1819.7
2016-May-26 04:32N 49°23' W 005°19'4119.4
2016-May-26 02:26N 48°55' W 006°04'50119.0
2016-May-25 00:00N 43°06' W 014°42'38618.4 230 / 181005.8 5.4 1.516.011.7
2016-May-24 03:00N 39°06' W 021°24'12118.0 300 / 241014.5 5.4 3.017.014.6
2016-May-23 20:17N 38°01' W 023°35'1318.1
2016-May-23 19:33N 37°54' W 023°49'1818.0
2016-May-23 18:33N 37°45' W 024°08'1818.1
2016-May-23 17:34N 37°36' W 024°28'1918.5
2016-May-23 16:34N 37°26' W 024°48'1818.1
2016-May-23 15:34N 37°15' W 025°06'1818.3
2016-May-23 14:33N 37°06' W 025°26'1818.2
2016-May-23 13:34N 36°56' W 025°45'1818.4
2016-May-23 12:34N 36°47' W 026°05'1818.3
2016-May-23 11:33N 36°37' W 026°25'20717.9
2016-May-23 00:00N 35°24' W 030°24'6120.5 270 / 241019.0 5.4 2.519.015.9
2016-May-22 21:00N 35°06' W 031°36'16218.0 230 / 241018.0 5.4 3.020.013.520.0
2016-May-22 12:00N 34°30' W 034°48'23319.5 270 / 221018.0 2.2 2.018.018.0
2016-May-22 00:00N 33°24' W 039°18'6120.5 10.0
2016-May-21 21:00N 33°12' W 040°30'11719.4 230 / 191022.0 5.4 1.525.020.722.0
2016-May-21 15:00N 32°36' W 042°42'34519.2 230 / 201022.0 5.4 1.524.021.1
2016-May-20 21:00N 29°42' W 048°30'10918.1 180 / 101026.010.8 1.531.024.224.0
2016-May-20 15:00N 28°48' W 050°18'27518.3 180 / 121026.010.8 0.524.520.9
2016-May-20 00:00N 26°24' W 054°42'16418.2 140 / 141025.010.8 2.025.020.725.0
2016-May-19 15:00N 25°00' W 057°18'15617.3 120 / 151023.010.8 1.025.520.5
2016-May-19 06:00N 23°36' W 059°42'   090 / 181020.010.8 1.025.022.9

Dump ship's entire track history